Alledonia, Ohio
Current Conditions -  °F | °C
As of 4:19 AM on Friday 19 Dec 2014 (Local Time) from KHLG Reporting Station
Overcast Overcast  
Wind Chill: 19°   Ceiling: 800
Heat Index: 27°   Visibility: 7mi
Dew Point: 23°   Wind: 8mph
Humidity: 85%   Direction: 260°W
Pressure: 30.16"   Gusts: NA
Location:  39.9°N, 80.97°W
Report Text: KHLG 190919Z AUTO 26007KT 7SM BKN008 OVC027 M03/M05 A3016 RMK AO2 T10281050
Loading
Personal Weather Stations






























Interactive Weather Map New forecast layout! Learn more

10-Day Weather Forecast

Advertisements
Track Severe Weather on mobile